createdAt,value
2022-10-31T00:00:02.609Z,9.5
2022-10-31T00:20:03.214Z,9.4
2022-10-31T00:40:02.425Z,9.2
2022-10-31T01:00:02.666Z,9
2022-10-31T01:20:02.219Z,8.9
2022-10-31T01:40:02.472Z,8.7
2022-10-31T02:00:03.821Z,8.6
2022-10-31T02:20:03.170Z,8.5
2022-10-31T02:40:02.647Z,8.3
2022-10-31T03:00:03.114Z,8.2
2022-10-31T03:20:02.580Z,8.2
2022-10-31T03:40:02.799Z,8
2022-10-31T04:00:02.108Z,8
2022-10-31T04:20:02.777Z,7.8
2022-10-31T04:40:02.012Z,7.7
2022-10-31T05:00:02.287Z,7.5
2022-10-31T05:20:02.974Z,7.5
2022-10-31T05:40:05.220Z,7.3
2022-10-31T06:00:03.155Z,7.2
2022-10-31T06:20:02.497Z,7.2
2022-10-31T06:40:02.931Z,7.3
2022-10-31T07:00:02.391Z,7.5
2022-10-31T07:20:03.215Z,7.9
2022-10-31T07:40:02.738Z,8.5
2022-10-31T08:00:03.022Z,9.1
2022-10-31T08:20:02.399Z,10.6
2022-10-31T08:40:02.975Z,11.8
2022-10-31T09:00:02.642Z,12.2
2022-10-31T09:20:02.125Z,13.3
2022-10-31T09:40:02.449Z,14.6
2022-10-31T10:00:03.120Z,14.7
2022-10-31T10:20:02.579Z,15.5
2022-10-31T10:40:03.188Z,15.4
2022-10-31T11:00:02.511Z,16.7
2022-10-31T11:20:02.979Z,17.4
2022-10-31T11:40:02.547Z,17.2
2022-10-31T12:00:02.979Z,17.7
2022-10-31T12:20:02.480Z,18.2
2022-10-31T12:40:02.803Z,17.9
2022-10-31T13:00:02.238Z,17.8
2022-10-31T13:20:03.293Z,17.5
2022-10-31T13:40:02.902Z,17.3
2022-10-31T14:00:02.220Z,17.2
2022-10-31T14:20:03.048Z,16.9
2022-10-31T14:40:02.398Z,16.6
2022-10-31T15:00:03.974Z,16.2
2022-10-31T15:20:03.227Z,15.6
2022-10-31T15:40:02.900Z,15
2022-10-31T16:00:02.333Z,14.6
2022-10-31T16:20:02.257Z,14.1
2022-10-31T16:40:03.082Z,13.7
2022-10-31T17:00:03.421Z,13.3
2022-10-31T17:20:02.126Z,13.1
2022-10-31T17:40:02.511Z,12.8
2022-10-31T18:00:02.752Z,12.4
2022-10-31T18:20:02.127Z,12.3
2022-10-31T18:40:02.468Z,12.1
2022-10-31T19:00:04.097Z,11.9
2022-10-31T19:20:04.340Z,11.7
2022-10-31T19:40:03.987Z,11.6
2022-10-31T20:00:02.737Z,11.4
2022-10-31T20:20:03.627Z,11.3
2022-10-31T20:40:03.171Z,11.1
2022-10-31T21:00:02.926Z,10.8
2022-10-31T21:20:03.042Z,10.8
2022-10-31T21:40:03.481Z,10.6
2022-10-31T22:00:03.455Z,10.6
2022-10-31T22:20:03.070Z,10.6
2022-10-31T22:40:02.508Z,11
2022-10-31T23:00:03.004Z,11.3
2022-10-31T23:20:02.661Z,11.5
2022-10-31T23:40:03.079Z,11.6
